sensor_id;sensor_type;location;lat;lon;timestamp;pressure;altitude;pressure_sealevel;temperature;humidity
64139;BME280;50435;43.700;-79.318;2023-01-26T00:00:48;98740.15;;;1.85;51.12
64139;BME280;50435;43.700;-79.318;2023-01-26T00:03:17;98742.10;;;2.17;50.92
64139;BME280;50435;43.700;-79.318;2023-01-26T00:05:45;98739.42;;;2.39;50.99
64139;BME280;50435;43.700;-79.318;2023-01-26T00:08:12;98733.75;;;1.78;51.61
64139;BME280;50435;43.700;-79.318;2023-01-26T00:10:41;98725.93;;;1.62;52.60
64139;BME280;50435;43.700;-79.318;2023-01-26T00:13:09;98724.56;;;1.91;52.60
64139;BME280;50435;43.700;-79.318;2023-01-26T00:15:37;98743.33;;;1.86;52.75
64139;BME280;50435;43.700;-79.318;2023-01-26T00:18:04;98730.31;;;1.20;53.08
64139;BME280;50435;43.700;-79.318;2023-01-26T00:20:32;98709.78;;;1.65;53.22
64139;BME280;50435;43.700;-79.318;2023-01-26T00:22:59;98704.97;;;1.72;53.20
64139;BME280;50435;43.700;-79.318;2023-01-26T00:25:27;98717.13;;;1.73;53.19
64139;BME280;50435;43.700;-79.318;2023-01-26T00:27:55;98718.59;;;1.80;53.05
64139;BME280;50435;43.700;-79.318;2023-01-26T00:30:23;98700.67;;;1.32;53.49
64139;BME280;50435;43.700;-79.318;2023-01-26T00:32:50;98695.58;;;1.64;53.38
64139;BME280;50435;43.700;-79.318;2023-01-26T00:35:17;98689.82;;;1.67;53.44
64139;BME280;50435;43.700;-79.318;2023-01-26T00:37:45;98708.51;;;1.69;53.34
64139;BME280;50435;43.700;-79.318;2023-01-26T00:40:12;98701.15;;;1.76;53.08
64139;BME280;50435;43.700;-79.318;2023-01-26T00:42:39;98696.35;;;1.75;53.20
64139;BME280;50435;43.700;-79.318;2023-01-26T00:45:07;98677.27;;;1.43;53.27
64139;BME280;50435;43.700;-79.318;2023-01-26T00:47:35;98672.05;;;1.76;53.18
64139;BME280;50435;43.700;-79.318;2023-01-26T00:50:03;98675.84;;;0.98;53.27
64139;BME280;50435;43.700;-79.318;2023-01-26T00:52:30;98675.46;;;1.83;53.04
64139;BME280;50435;43.700;-79.318;2023-01-26T00:54:58;98685.40;;;1.73;53.38
64139;BME280;50435;43.700;-79.318;2023-01-26T00:57:26;98680.05;;;1.75;53.23
64139;BME280;50435;43.700;-79.318;2023-01-26T00:59:53;98669.43;;;2.00;53.16
64139;BME280;50435;43.700;-79.318;2023-01-26T01:02:21;98664.51;;;1.74;53.24
64139;BME280;50435;43.700;-79.318;2023-01-26T01:04:48;98661.73;;;1.81;53.11
64139;BME280;50435;43.700;-79.318;2023-01-26T01:07:15;98655.72;;;1.77;53.36
64139;BME280;50435;43.700;-79.318;2023-01-26T01:09:44;98641.38;;;0.94;52.92
64139;BME280;50435;43.700;-79.318;2023-01-26T01:12:12;98639.73;;;1.64;51.44
64139;BME280;50435;43.700;-79.318;2023-01-26T01:14:39;98639.71;;;2.42;51.67
64139;BME280;50435;43.700;-79.318;2023-01-26T01:17:06;98632.17;;;1.84;52.31
64139;BME280;50435;43.700;-79.318;2023-01-26T01:19:34;98637.69;;;1.76;52.65
64139;BME280;50435;43.700;-79.318;2023-01-26T01:22:01;98625.56;;;1.45;52.81
64139;BME280;50435;43.700;-79.318;2023-01-26T01:24:28;98630.03;;;1.81;52.63
64139;BME280;50435;43.700;-79.318;2023-01-26T01:26:55;98608.15;;;1.88;52.49
64139;BME280;50435;43.700;-79.318;2023-01-26T01:29:22;98613.32;;;1.88;53.00
64139;BME280;50435;43.700;-79.318;2023-01-26T01:31:50;98603.73;;;1.57;53.38
64139;BME280;50435;43.700;-79.318;2023-01-26T01:34:17;98600.12;;;1.73;53.44
64139;BME280;50435;43.700;-79.318;2023-01-26T01:36:44;98601.88;;;1.64;53.58
64139;BME280;50435;43.700;-79.318;2023-01-26T01:39:12;98586.46;;;1.48;53.54
64139;BME280;50435;43.700;-79.318;2023-01-26T01:41:39;98573.32;;;1.70;53.03
64139;BME280;50435;43.700;-79.318;2023-01-26T01:44:17;98562.07;;;1.86;53.27
64139;BME280;50435;43.700;-79.318;2023-01-26T01:46:48;98558.09;;;1.78;53.43
64139;BME280;50435;43.700;-79.318;2023-01-26T01:49:20;98562.70;;;1.52;53.39
64139;BME280;50435;43.700;-79.318;2023-01-26T01:51:52;98561.94;;;1.73;53.61
64139;BME280;50435;43.700;-79.318;2023-01-26T01:54:25;98563.16;;;1.77;53.50
64139;BME280;50435;43.700;-79.318;2023-01-26T01:56:57;98548.81;;;1.74;53.46
64139;BME280;50435;43.700;-79.318;2023-01-26T01:59:27;98544.56;;;1.84;53.39
64139;BME280;50435;43.700;-79.318;2023-01-26T02:01:55;98548.02;;;2.06;53.39
64139;BME280;50435;43.700;-79.318;2023-01-26T02:04:24;98535.10;;;1.83;53.43
64139;BME280;50435;43.700;-79.318;2023-01-26T02:06:53;98539.94;;;1.95;53.23
64139;BME280;50435;43.700;-79.318;2023-01-26T02:09:26;98529.07;;;1.83;53.32
64139;BME280;50435;43.700;-79.318;2023-01-26T02:11:56;98528.01;;;1.87;53.36
64139;BME280;50435;43.700;-79.318;2023-01-26T02:14:24;98524.04;;;1.86;53.36
64139;BME280;50435;43.700;-79.318;2023-01-26T02:16:52;98519.05;;;1.83;53.31
64139;BME280;50435;43.700;-79.318;2023-01-26T02:19:24;98514.89;;;1.83;53.35
64139;BME280;50435;43.700;-79.318;2023-01-26T02:21:59;98510.22;;;2.06;53.38
64139;BME280;50435;43.700;-79.318;2023-01-26T02:24:36;98515.32;;;1.81;53.47
64139;BME280;50435;43.700;-79.318;2023-01-26T02:27:05;98513.92;;;1.52;53.47
64139;BME280;50435;43.700;-79.318;2023-01-26T02:29:32;98505.06;;;1.83;53.38
64139;BME280;50435;43.700;-79.318;2023-01-26T02:32:00;98491.74;;;1.80;53.36
64139;BME280;50435;43.700;-79.318;2023-01-26T02:34:28;98468.39;;;1.83;53.35
64139;BME280;50435;43.700;-79.318;2023-01-26T02:36:56;98466.90;;;1.58;53.40
64139;BME280;50435;43.700;-79.318;2023-01-26T02:39:35;98466.50;;;2.01;53.47
64139;BME280;50435;43.700;-79.318;2023-01-26T02:42:05;98448.66;;;1.85;53.39
64139;BME280;50435;43.700;-79.318;2023-01-26T02:44:33;98458.73;;;2.04;53.47
64139;BME280;50435;43.700;-79.318;2023-01-26T02:47:00;98442.22;;;1.84;53.41
64139;BME280;50435;43.700;-79.318;2023-01-26T02:49:36;98441.53;;;1.77;53.58
64139;BME280;50435;43.700;-79.318;2023-01-26T02:52:05;98447.02;;;1.32;53.53
64139;BME280;50435;43.700;-79.318;2023-01-26T02:54:33;98439.21;;;1.82;53.49
64139;BME280;50435;43.700;-79.318;2023-01-26T02:57:01;98436.61;;;1.86;53.42
64139;BME280;50435;43.700;-79.318;2023-01-26T02:59:28;98428.20;;;1.81;53.51
64139;BME280;50435;43.700;-79.318;2023-01-26T03:01:56;98421.35;;;1.80;53.64
64139;BME280;50435;43.700;-79.318;2023-01-26T03:04:24;98416.68;;;1.82;53.64
64139;BME280;50435;43.700;-79.318;2023-01-26T03:06:52;98417.47;;;1.88;53.72
64139;BME280;50435;43.700;-79.318;2023-01-26T03:09:20;98413.76;;;1.84;53.43
64139;BME280;50435;43.700;-79.318;2023-01-26T03:11:48;98409.05;;;1.80;53.65
64139;BME280;50435;43.700;-79.318;2023-01-26T03:14:15;98406.59;;;1.88;53.36
64139;BME280;50435;43.700;-79.318;2023-01-26T03:16:43;98400.92;;;1.78;53.60
64139;BME280;50435;43.700;-79.318;2023-01-26T03:19:12;98393.34;;;1.86;53.50
64139;BME280;50435;43.700;-79.318;2023-01-26T03:21:40;98388.97;;;1.88;53.75
64139;BME280;50435;43.700;-79.318;2023-01-26T03:24:10;98388.75;;;1.90;53.91
64139;BME280;50435;43.700;-79.318;2023-01-26T03:26:39;98380.36;;;1.93;53.82
64139;BME280;50435;43.700;-79.318;2023-01-26T03:29:06;98378.61;;;1.99;53.27
64139;BME280;50435;43.700;-79.318;2023-01-26T03:31:33;98381.59;;;1.96;53.42
64139;BME280;50435;43.700;-79.318;2023-01-26T03:34:01;98374.00;;;1.49;53.37
64139;BME280;50435;43.700;-79.318;2023-01-26T03:36:28;98368.23;;;2.10;53.03
64139;BME280;50435;43.700;-79.318;2023-01-26T03:38:55;98362.53;;;2.06;53.08
64139;BME280;50435;43.700;-79.318;2023-01-26T03:41:23;98351.92;;;1.93;53.40
64139;BME280;50435;43.700;-79.318;2023-01-26T03:43:50;98354.48;;;1.91;53.50
64139;BME280;50435;43.700;-79.318;2023-01-26T03:46:17;98343.36;;;1.74;53.37
64139;BME280;50435;43.700;-79.318;2023-01-26T03:48:45;98343.48;;;2.03;53.18
64139;BME280;50435;43.700;-79.318;2023-01-26T03:51:12;98338.47;;;1.99;53.34
64139;BME280;50435;43.700;-79.318;2023-01-26T03:53:39;98331.19;;;1.42;53.54
64139;BME280;50435;43.700;-79.318;2023-01-26T03:56:07;98330.99;;;1.67;53.45
64139;BME280;50435;43.700;-79.318;2023-01-26T03:58:35;98330.24;;;1.96;53.48
64139;BME280;50435;43.700;-79.318;2023-01-26T04:01:03;98320.15;;;1.40;53.61
64139;BME280;50435;43.700;-79.318;2023-01-26T04:03:31;98321.76;;;2.08;53.19
64139;BME280;50435;43.700;-79.318;2023-01-26T04:05:58;98314.89;;;1.75;52.89
64139;BME280;50435;43.700;-79.318;2023-01-26T04:08:26;98314.09;;;2.12;52.07
64139;BME280;50435;43.700;-79.318;2023-01-26T04:10:54;98309.29;;;2.26;51.70
64139;BME280;50435;43.700;-79.318;2023-01-26T04:13:23;98310.06;;;2.40;51.39
64139;BME280;50435;43.700;-79.318;2023-01-26T04:15:51;98296.65;;;2.37;51.52
64139;BME280;50435;43.700;-79.318;2023-01-26T04:18:18;98294.83;;;2.24;51.78
64139;BME280;50435;43.700;-79.318;2023-01-26T04:20:45;98285.81;;;2.33;51.56
64139;BME280;50435;43.700;-79.318;2023-01-26T04:23:17;98286.35;;;2.25;51.78
64139;BME280;50435;43.700;-79.318;2023-01-26T04:25:45;98281.53;;;2.27;51.69
64139;BME280;50435;43.700;-79.318;2023-01-26T04:28:12;98280.37;;;2.17;52.13
64139;BME280;50435;43.700;-79.318;2023-01-26T04:30:39;98278.05;;;2.18;52.00
64139;BME280;50435;43.700;-79.318;2023-01-26T04:33:07;98273.51;;;1.85;52.20
64139;BME280;50435;43.700;-79.318;2023-01-26T04:35:34;98266.94;;;2.60;52.35
64139;BME280;50435;43.700;-79.318;2023-01-26T04:38:01;98262.26;;;2.15;52.19
64139;BME280;50435;43.700;-79.318;2023-01-26T04:40:29;98259.84;;;2.07;52.40
64139;BME280;50435;43.700;-79.318;2023-01-26T04:42:56;98256.47;;;2.06;52.52
64139;BME280;50435;43.700;-79.318;2023-01-26T04:45:24;98254.02;;;1.82;52.48
64139;BME280;50435;43.700;-79.318;2023-01-26T04:47:52;98249.92;;;2.21;52.69
64139;BME280;50435;43.700;-79.318;2023-01-26T04:50:19;98245.55;;;2.00;52.62
64139;BME280;50435;43.700;-79.318;2023-01-26T04:52:46;98244.37;;;2.03;52.56
64139;BME280;50435;43.700;-79.318;2023-01-26T04:55:14;98239.22;;;1.77;52.61
64139;BME280;50435;43.700;-79.318;2023-01-26T04:57:41;98243.37;;;1.96;52.85
64139;BME280;50435;43.700;-79.318;2023-01-26T05:00:10;98238.55;;;2.05;52.56
64139;BME280;50435;43.700;-79.318;2023-01-26T05:02:37;98243.33;;;2.15;52.32
64139;BME280;50435;43.700;-79.318;2023-01-26T05:05:05;98244.45;;;2.15;52.35
64139;BME280;50435;43.700;-79.318;2023-01-26T05:07:33;98236.14;;;2.11;53.32
64139;BME280;50435;43.700;-79.318;2023-01-26T05:10:00;98224.57;;;1.74;54.32
64139;BME280;50435;43.700;-79.318;2023-01-26T05:12:27;98214.18;;;1.41;54.55
64139;BME280;50435;43.700;-79.318;2023-01-26T05:14:55;98215.00;;;1.98;54.34
64139;BME280;50435;43.700;-79.318;2023-01-26T05:17:22;98212.22;;;1.80;54.24
64139;BME280;50435;43.700;-79.318;2023-01-26T05:19:50;98207.76;;;1.45;54.47
64139;BME280;50435;43.700;-79.318;2023-01-26T05:22:17;98207.48;;;2.00;54.32
64139;BME280;50435;43.700;-79.318;2023-01-26T05:24:45;98203.03;;;1.71;54.52
64139;BME280;50435;43.700;-79.318;2023-01-26T05:27:12;98203.68;;;1.76;54.35
64139;BME280;50435;43.700;-79.318;2023-01-26T05:29:39;98203.66;;;1.81;54.26
64139;BME280;50435;43.700;-79.318;2023-01-26T05:32:07;98203.08;;;1.78;54.40
64139;BME280;50435;43.700;-79.318;2023-01-26T05:34:34;98203.25;;;1.71;54.53
64139;BME280;50435;43.700;-79.318;2023-01-26T05:37:01;98197.96;;;1.75;54.46
64139;BME280;50435;43.700;-79.318;2023-01-26T05:39:29;98195.37;;;1.73;54.49
64139;BME280;50435;43.700;-79.318;2023-01-26T05:41:56;98189.26;;;1.52;54.94
64139;BME280;50435;43.700;-79.318;2023-01-26T05:44:24;98185.88;;;1.61;54.79
64139;BME280;50435;43.700;-79.318;2023-01-26T05:46:51;98179.25;;;1.62;54.78
64139;BME280;50435;43.700;-79.318;2023-01-26T05:49:18;98174.85;;;1.40;54.64
64139;BME280;50435;43.700;-79.318;2023-01-26T05:51:45;98164.56;;;1.64;54.74
64139;BME280;50435;43.700;-79.318;2023-01-26T05:54:13;98158.58;;;1.67;54.69
64139;BME280;50435;43.700;-79.318;2023-01-26T05:56:40;98149.44;;;1.71;54.57
64139;BME280;50435;43.700;-79.318;2023-01-26T05:59:07;98145.64;;;1.68;54.61
64139;BME280;50435;43.700;-79.318;2023-01-26T06:01:35;98137.64;;;1.70;54.62
64139;BME280;50435;43.700;-79.318;2023-01-26T06:04:02;98134.30;;;1.67;54.64
64139;BME280;50435;43.700;-79.318;2023-01-26T06:06:29;98133.45;;;1.76;54.45
64139;BME280;50435;43.700;-79.318;2023-01-26T06:08:57;98134.39;;;1.78;54.40
64139;BME280;50435;43.700;-79.318;2023-01-26T06:11:25;98133.34;;;1.81;54.37
64139;BME280;50435;43.700;-79.318;2023-01-26T06:13:52;98129.38;;;1.83;54.26
64139;BME280;50435;43.700;-79.318;2023-01-26T06:16:20;98132.17;;;1.58;54.26
64139;BME280;50435;43.700;-79.318;2023-01-26T06:18:48;98131.58;;;1.85;54.21
64139;BME280;50435;43.700;-79.318;2023-01-26T06:21:16;98128.27;;;1.61;54.12
64139;BME280;50435;43.700;-79.318;2023-01-26T06:23:43;98129.98;;;1.91;54.11
64139;BME280;50435;43.700;-79.318;2023-01-26T06:26:11;98134.03;;;1.92;54.09
64139;BME280;50435;43.700;-79.318;2023-01-26T06:28:38;98130.02;;;1.85;54.24
64139;BME280;50435;43.700;-79.318;2023-01-26T06:31:07;98131.59;;;1.58;54.16
64139;BME280;50435;43.700;-79.318;2023-01-26T06:33:36;98127.60;;;1.90;54.12
64139;BME280;50435;43.700;-79.318;2023-01-26T06:36:06;98124.95;;;0.86;54.23
64139;BME280;50435;43.700;-79.318;2023-01-26T06:38:33;98127.71;;;1.56;54.21
64139;BME280;50435;43.700;-79.318;2023-01-26T06:41:01;98125.30;;;1.78;54.38
64139;BME280;50435;43.700;-79.318;2023-01-26T06:43:31;98122.02;;;1.53;54.31
64139;BME280;50435;43.700;-79.318;2023-01-26T06:45:59;98118.36;;;1.84;54.17
64139;BME280;50435;43.700;-79.318;2023-01-26T06:48:28;98119.53;;;1.56;54.30
64139;BME280;50435;43.700;-79.318;2023-01-26T06:50:58;98113.85;;;1.79;54.32
64139;BME280;50435;43.700;-79.318;2023-01-26T06:53:33;98114.48;;;1.54;54.37
64139;BME280;50435;43.700;-79.318;2023-01-26T06:56:00;98117.11;;;1.93;54.00
64139;BME280;50435;43.700;-79.318;2023-01-26T06:58:27;98117.79;;;1.86;54.19
64139;BME280;50435;43.700;-79.318;2023-01-26T07:00:56;98122.87;;;1.96;53.94
64139;BME280;50435;43.700;-79.318;2023-01-26T07:03:23;98121.43;;;1.93;54.04
64139;BME280;50435;43.700;-79.318;2023-01-26T07:05:50;98125.50;;;1.89;54.11
64139;BME280;50435;43.700;-79.318;2023-01-26T07:08:18;98124.83;;;1.89;54.15
64139;BME280;50435;43.700;-79.318;2023-01-26T07:10:45;98129.05;;;1.83;54.27
64139;BME280;50435;43.700;-79.318;2023-01-26T07:13:12;98130.77;;;1.85;54.18
64139;BME280;50435;43.700;-79.318;2023-01-26T07:15:40;98135.92;;;1.73;54.51
64139;BME280;50435;43.700;-79.318;2023-01-26T07:18:07;98139.77;;;1.21;54.61
64139;BME280;50435;43.700;-79.318;2023-01-26T07:20:36;98142.77;;;1.73;54.54
64139;BME280;50435;43.700;-79.318;2023-01-26T07:23:03;98145.22;;;1.16;54.77
64139;BME280;50435;43.700;-79.318;2023-01-26T07:25:30;98148.91;;;1.30;54.92
64139;BME280;50435;43.700;-79.318;2023-01-26T07:27:58;98148.34;;;1.77;54.41
64139;BME280;50435;43.700;-79.318;2023-01-26T07:30:26;98155.21;;;1.89;54.12
64139;BME280;50435;43.700;-79.318;2023-01-26T07:32:54;98155.86;;;1.78;54.37
64139;BME280;50435;43.700;-79.318;2023-01-26T07:35:21;98164.52;;;1.91;53.99
64139;BME280;50435;43.700;-79.318;2023-01-26T07:37:48;98156.05;;;1.90;54.04
64139;BME280;50435;43.700;-79.318;2023-01-26T07:40:16;98156.85;;;2.01;53.80
64139;BME280;50435;43.700;-79.318;2023-01-26T07:42:44;98162.83;;;2.03;53.69
64139;BME280;50435;43.700;-79.318;2023-01-26T07:45:11;98168.44;;;1.73;53.72
64139;BME280;50435;43.700;-79.318;2023-01-26T07:47:39;98174.40;;;1.96;53.73
64139;BME280;50435;43.700;-79.318;2023-01-26T07:50:08;98185.84;;;1.43;53.81
64139;BME280;50435;43.700;-79.318;2023-01-26T07:52:36;98183.25;;;1.71;53.70
64139;BME280;50435;43.700;-79.318;2023-01-26T07:55:04;98181.80;;;1.44;53.77
64139;BME280;50435;43.700;-79.318;2023-01-26T07:57:31;98190.29;;;1.99;53.63
64139;BME280;50435;43.700;-79.318;2023-01-26T07:59:58;98200.62;;;1.75;53.95
64139;BME280;50435;43.700;-79.318;2023-01-26T08:02:26;98200.87;;;1.75;53.79
64139;BME280;50435;43.700;-79.318;2023-01-26T08:04:53;98199.88;;;1.78;53.65
64139;BME280;50435;43.700;-79.318;2023-01-26T08:07:20;98208.78;;;1.59;53.68
64139;BME280;50435;43.700;-79.318;2023-01-26T08:09:48;98213.52;;;1.70;53.62
64139;BME280;50435;43.700;-79.318;2023-01-26T08:12:15;98220.62;;;1.43;53.55
64139;BME280;50435;43.700;-79.318;2023-01-26T08:14:43;98229.35;;;1.75;53.38
64139;BME280;50435;43.700;-79.318;2023-01-26T08:17:10;98229.80;;;1.37;53.51
64139;BME280;50435;43.700;-79.318;2023-01-26T08:19:37;98234.27;;;1.58;53.53
64139;BME280;50435;43.700;-79.318;2023-01-26T08:22:05;98236.68;;;1.07;53.52
64139;BME280;50435;43.700;-79.318;2023-01-26T08:24:32;98242.36;;;1.51;53.62
64139;BME280;50435;43.700;-79.318;2023-01-26T08:26:59;98239.46;;;1.57;53.49
64139;BME280;50435;43.700;-79.318;2023-01-26T08:29:27;98244.86;;;1.57;53.35
64139;BME280;50435;43.700;-79.318;2023-01-26T08:31:54;98245.60;;;1.76;53.32
64139;BME280;50435;43.700;-79.318;2023-01-26T08:34:21;98255.72;;;1.43;53.49
64139;BME280;50435;43.700;-79.318;2023-01-26T08:36:49;98261.55;;;1.31;53.63
64139;BME280;50435;43.700;-79.318;2023-01-26T08:39:16;98272.29;;;1.70;53.25
64139;BME280;50435;43.700;-79.318;2023-01-26T08:41:43;98274.49;;;1.42;53.29
64139;BME280;50435;43.700;-79.318;2023-01-26T08:44:11;98282.86;;;1.41;53.12
64139;BME280;50435;43.700;-79.318;2023-01-26T08:46:38;98288.98;;;1.54;53.24
64139;BME280;50435;43.700;-79.318;2023-01-26T08:49:06;98287.42;;;1.21;53.48
64139;BME280;50435;43.700;-79.318;2023-01-26T08:51:33;98295.23;;;1.43;53.42
64139;BME280;50435;43.700;-79.318;2023-01-26T08:54:00;98301.78;;;1.34;53.45
64139;BME280;50435;43.700;-79.318;2023-01-26T08:56:28;98306.82;;;1.54;53.39
64139;BME280;50435;43.700;-79.318;2023-01-26T08:58:55;98306.73;;;1.09;53.35
64139;BME280;50435;43.700;-79.318;2023-01-26T09:01:22;98313.25;;;1.34;53.15
64139;BME280;50435;43.700;-79.318;2023-01-26T09:03:50;98314.45;;;1.21;53.45
64139;BME280;50435;43.700;-79.318;2023-01-26T09:06:17;98323.83;;;1.15;53.42
64139;BME280;50435;43.700;-79.318;2023-01-26T09:08:44;98320.90;;;1.02;53.18
64139;BME280;50435;43.700;-79.318;2023-01-26T09:11:12;98324.23;;;1.10;53.38
64139;BME280;50435;43.700;-79.318;2023-01-26T09:13:40;98329.77;;;1.28;52.47
64139;BME280;50435;43.700;-79.318;2023-01-26T09:16:14;98345.48;;;0.96;52.98
64139;BME280;50435;43.700;-79.318;2023-01-26T09:18:41;98341.30;;;1.28;53.18
64139;BME280;50435;43.700;-79.318;2023-01-26T09:21:09;98350.04;;;0.93;53.04
64139;BME280;50435;43.700;-79.318;2023-01-26T09:23:36;98356.01;;;1.37;52.86
64139;BME280;50435;43.700;-79.318;2023-01-26T09:26:04;98364.65;;;0.80;53.09
64139;BME280;50435;43.700;-79.318;2023-01-26T09:28:31;98367.71;;;1.02;53.06
64139;BME280;50435;43.700;-79.318;2023-01-26T09:31:02;98366.39;;;1.07;52.92
64139;BME280;50435;43.700;-79.318;2023-01-26T09:33:30;98372.70;;;0.93;53.28
64139;BME280;50435;43.700;-79.318;2023-01-26T09:36:02;98379.36;;;1.18;52.96
64139;BME280;50435;43.700;-79.318;2023-01-26T09:38:30;98387.29;;;1.17;53.06
64139;BME280;50435;43.700;-79.318;2023-01-26T09:41:04;98394.22;;;0.84;53.12
64139;BME280;50435;43.700;-79.318;2023-01-26T09:43:37;98395.84;;;0.78;53.16
64139;BME280;50435;43.700;-79.318;2023-01-26T09:46:15;98405.34;;;0.73;52.86
64139;BME280;50435;43.700;-79.318;2023-01-26T09:48:54;98402.09;;;0.96;53.12
64139;BME280;50435;43.700;-79.318;2023-01-26T09:51:28;98421.44;;;1.00;53.12
64139;BME280;50435;43.700;-79.318;2023-01-26T09:54:02;98430.45;;;0.75;53.47
64139;BME280;50435;43.700;-79.318;2023-01-26T09:56:31;98444.04;;;0.68;53.56
64139;BME280;50435;43.700;-79.318;2023-01-26T09:59:03;98446.59;;;0.69;53.50
64139;BME280;50435;43.700;-79.318;2023-01-26T10:01:37;98449.74;;;0.74;53.24
64139;BME280;50435;43.700;-79.318;2023-01-26T10:04:13;98445.48;;;0.51;53.26
64139;BME280;50435;43.700;-79.318;2023-01-26T10:06:45;98446.53;;;0.86;53.03
64139;BME280;50435;43.700;-79.318;2023-01-26T10:09:16;98456.19;;;0.72;53.29
64139;BME280;50435;43.700;-79.318;2023-01-26T10:11:51;98463.56;;;0.72;53.08
64139;BME280;50435;43.700;-79.318;2023-01-26T10:14:23;98464.85;;;0.32;53.20
64139;BME280;50435;43.700;-79.318;2023-01-26T10:16:54;98466.73;;;0.48;52.57
64139;BME280;50435;43.700;-79.318;2023-01-26T10:19:30;98476.33;;;0.30;52.96
64139;BME280;50435;43.700;-79.318;2023-01-26T10:22:04;98477.90;;;0.54;52.80
64139;BME280;50435;43.700;-79.318;2023-01-26T10:24:32;98492.91;;;0.57;52.75
64139;BME280;50435;43.700;-79.318;2023-01-26T10:27:00;98491.97;;;0.80;52.62
64139;BME280;50435;43.700;-79.318;2023-01-26T10:29:27;98496.54;;;0.69;53.00
64139;BME280;50435;43.700;-79.318;2023-01-26T10:31:54;98505.31;;;0.69;52.83
64139;BME280;50435;43.700;-79.318;2023-01-26T10:34:24;98515.10;;;0.64;52.89
64139;BME280;50435;43.700;-79.318;2023-01-26T10:36:59;98521.79;;;0.67;52.85
64139;BME280;50435;43.700;-79.318;2023-01-26T10:39:28;98530.28;;;0.55;53.15
64139;BME280;50435;43.700;-79.318;2023-01-26T10:41:57;98530.97;;;0.68;52.78
64139;BME280;50435;43.700;-79.318;2023-01-26T10:44:32;98538.28;;;0.68;52.63
64139;BME280;50435;43.700;-79.318;2023-01-26T10:47:04;98540.93;;;0.52;52.57
64139;BME280;50435;43.700;-79.318;2023-01-26T10:49:32;98550.20;;;0.64;52.80
64139;BME280;50435;43.700;-79.318;2023-01-26T10:52:14;98555.93;;;0.62;52.63
64139;BME280;50435;43.700;-79.318;2023-01-26T10:54:43;98554.80;;;0.62;52.66
64139;BME280;50435;43.700;-79.318;2023-01-26T10:57:17;98565.98;;;0.57;52.69
64139;BME280;50435;43.700;-79.318;2023-01-26T10:59:50;98573.75;;;0.66;53.08
64139;BME280;50435;43.700;-79.318;2023-01-26T11:02:22;98578.25;;;0.43;52.64
64139;BME280;50435;43.700;-79.318;2023-01-26T11:05:23;98580.19;;;0.24;52.63
64139;BME280;50435;43.700;-79.318;2023-01-26T11:07:52;98582.58;;;0.55;52.62
64139;BME280;50435;43.700;-79.318;2023-01-26T11:10:24;98586.06;;;0.46;52.61
64139;BME280;50435;43.700;-79.318;2023-01-26T11:13:07;98586.07;;;0.57;52.33
64139;BME280;50435;43.700;-79.318;2023-01-26T11:15:36;98594.79;;;0.36;52.75
64139;BME280;50435;43.700;-79.318;2023-01-26T11:18:12;98589.42;;;-0.06;52.77
64139;BME280;50435;43.700;-79.318;2023-01-26T11:20:47;98598.03;;;0.21;53.00
64139;BME280;50435;43.700;-79.318;2023-01-26T11:23:25;98604.73;;;0.51;52.47
64139;BME280;50435;43.700;-79.318;2023-01-26T11:26:12;98607.82;;;0.32;52.50
64139;BME280;50435;43.700;-79.318;2023-01-26T11:28:52;98606.43;;;0.30;52.73
64139;BME280;50435;43.700;-79.318;2023-01-26T11:31:33;98621.91;;;0.42;52.26
64139;BME280;50435;43.700;-79.318;2023-01-26T11:34:14;98635.46;;;0.22;52.44
64139;BME280;50435;43.700;-79.318;2023-01-26T11:36:51;98641.34;;;0.05;53.12
64139;BME280;50435;43.700;-79.318;2023-01-26T11:39:27;98645.73;;;0.28;52.71
64139;BME280;50435;43.700;-79.318;2023-01-26T11:42:11;98650.68;;;0.23;52.52
64139;BME280;50435;43.700;-79.318;2023-01-26T11:44:50;98648.42;;;0.23;52.84
64139;BME280;50435;43.700;-79.318;2023-01-26T11:47:28;98655.72;;;0.18;52.61
64139;BME280;50435;43.700;-79.318;2023-01-26T11:50:14;98661.64;;;0.49;52.05
64139;BME280;50435;43.700;-79.318;2023-01-26T11:52:54;98670.85;;;0.31;52.34
64139;BME280;50435;43.700;-79.318;2023-01-26T11:55:34;98682.96;;;0.45;51.98
64139;BME280;50435;43.700;-79.318;2023-01-26T11:58:18;98691.48;;;0.02;52.35
64139;BME280;50435;43.700;-79.318;2023-01-26T12:00:50;98698.16;;;0.25;52.41
64139;BME280;50435;43.700;-79.318;2023-01-26T12:03:24;98705.24;;;0.16;52.03
64139;BME280;50435;43.700;-79.318;2023-01-26T12:05:57;98716.35;;;0.13;52.58
64139;BME280;50435;43.700;-79.318;2023-01-26T12:08:31;98721.57;;;0.31;52.70
64139;BME280;50435;43.700;-79.318;2023-01-26T12:11:05;98724.71;;;0.14;52.20
64139;BME280;50435;43.700;-79.318;2023-01-26T12:13:37;98730.35;;;0.28;51.56
64139;BME280;50435;43.700;-79.318;2023-01-26T12:16:12;98740.57;;;-0.10;51.52
64139;BME280;50435;43.700;-79.318;2023-01-26T12:18:47;98749.88;;;0.09;52.24
64139;BME280;50435;43.700;-79.318;2023-01-26T12:21:19;98752.36;;;0.12;52.23
64139;BME280;50435;43.700;-79.318;2023-01-26T12:23:50;98762.52;;;0.11;52.33
64139;BME280;50435;43.700;-79.318;2023-01-26T12:26:22;98774.53;;;0.14;51.82
64139;BME280;50435;43.700;-79.318;2023-01-26T12:28:59;98779.82;;;0.17;51.96
64139;BME280;50435;43.700;-79.318;2023-01-26T12:31:31;98788.67;;;0.07;52.16
64139;BME280;50435;43.700;-79.318;2023-01-26T12:34:00;98790.29;;;-0.13;52.23
64139;BME280;50435;43.700;-79.318;2023-01-26T12:36:38;98802.91;;;0.07;52.09
64139;BME280;50435;43.700;-79.318;2023-01-26T12:39:12;98800.02;;;-0.15;52.55
64139;BME280;50435;43.700;-79.318;2023-01-26T12:42:05;98803.34;;;-0.05;52.51
64139;BME280;50435;43.700;-79.318;2023-01-26T12:44:38;98805.03;;;0.12;52.55
64139;BME280;50435;43.700;-79.318;2023-01-26T12:47:13;98804.77;;;-0.14;52.40
64139;BME280;50435;43.700;-79.318;2023-01-26T12:49:47;98810.11;;;0.27;51.62
64139;BME280;50435;43.700;-79.318;2023-01-26T12:52:21;98822.04;;;0.46;51.78
64139;BME280;50435;43.700;-79.318;2023-01-26T12:54:56;98827.03;;;-0.06;52.20
64139;BME280;50435;43.700;-79.318;2023-01-26T12:57:28;98837.34;;;0.34;51.53
64139;BME280;50435;43.700;-79.318;2023-01-26T13:00:06;98844.91;;;0.14;52.55
64139;BME280;50435;43.700;-79.318;2023-01-26T13:02:35;98855.83;;;-0.14;52.41